sensor_id;sensor_type;location;lat;lon;timestamp;temperature;humidity
5924;DHT22;2987;50.884;14.818;2023-07-09T00:01:22;15.20;99.90
5924;DHT22;2987;50.884;14.818;2023-07-09T00:03:48;15.20;99.90
5924;DHT22;2987;50.884;14.818;2023-07-09T00:06:18;15.20;99.90
5924;DHT22;2987;50.884;14.818;2023-07-09T00:08:45;15.10;99.90
5924;DHT22;2987;50.884;14.818;2023-07-09T00:11:15;15.10;99.90
5924;DHT22;2987;50.884;14.818;2023-07-09T00:13:41;15.10;99.90
5924;DHT22;2987;50.884;14.818;2023-07-09T00:16:13;15.00;99.90
5924;DHT22;2987;50.884;14.818;2023-07-09T00:18:39;14.90;99.90
5924;DHT22;2987;50.884;14.818;2023-07-09T00:21:05;14.80;99.90
5924;DHT22;2987;50.884;14.818;2023-07-09T00:23:32;14.80;99.90
5924;DHT22;2987;50.884;14.818;2023-07-09T00:25:59;14.80;99.90
5924;DHT22;2987;50.884;14.818;2023-07-09T00:28:25;14.70;99.90
5924;DHT22;2987;50.884;14.818;2023-07-09T00:30:51;14.60;99.90
5924;DHT22;2987;50.884;14.818;2023-07-09T00:33:17;14.60;99.90
5924;DHT22;2987;50.884;14.818;2023-07-09T00:35:46;14.60;99.90
5924;DHT22;2987;50.884;14.818;2023-07-09T00:38:19;14.60;99.90
5924;DHT22;2987;50.884;14.818;2023-07-09T00:41:05;14.60;99.90
5924;DHT22;2987;50.884;14.818;2023-07-09T00:43:35;14.60;99.90
5924;DHT22;2987;50.884;14.818;2023-07-09T00:51:31;14.50;99.90
5924;DHT22;2987;50.884;14.818;2023-07-09T00:54:03;14.50;99.90
5924;DHT22;2987;50.884;14.818;2023-07-09T00:56:37;14.40;99.90
5924;DHT22;2987;50.884;14.818;2023-07-09T00:59:09;14.40;99.90
5924;DHT22;2987;50.884;14.818;2023-07-09T01:01:37;14.30;99.90
5924;DHT22;2987;50.884;14.818;2023-07-09T01:04:07;14.30;99.90
5924;DHT22;2987;50.884;14.818;2023-07-09T01:06:44;14.30;99.90
5924;DHT22;2987;50.884;14.818;2023-07-09T01:09:11;14.20;99.90
5924;DHT22;2987;50.884;14.818;2023-07-09T01:11:37;14.20;99.90
5924;DHT22;2987;50.884;14.818;2023-07-09T01:14:07;14.20;99.90
5924;DHT22;2987;50.884;14.818;2023-07-09T01:16:38;14.10;99.90
5924;DHT22;2987;50.884;14.818;2023-07-09T01:19:05;14.10;99.90
5924;DHT22;2987;50.884;14.818;2023-07-09T01:21:33;14.10;99.90
5924;DHT22;2987;50.884;14.818;2023-07-09T01:24:12;14.00;99.90
5924;DHT22;2987;50.884;14.818;2023-07-09T01:26:39;13.90;99.90
5924;DHT22;2987;50.884;14.818;2023-07-09T01:29:07;13.90;99.90
5924;DHT22;2987;50.884;14.818;2023-07-09T01:31:33;13.80;99.90
5924;DHT22;2987;50.884;14.818;2023-07-09T01:34:02;13.80;99.90
5924;DHT22;2987;50.884;14.818;2023-07-09T01:36:28;13.80;99.90
5924;DHT22;2987;50.884;14.818;2023-07-09T01:38:56;13.80;99.90
5924;DHT22;2987;50.884;14.818;2023-07-09T01:41:22;13.80;99.90
5924;DHT22;2987;50.884;14.818;2023-07-09T01:43:50;13.80;99.90
5924;DHT22;2987;50.884;14.818;2023-07-09T01:46:16;13.80;99.90
5924;DHT22;2987;50.884;14.818;2023-07-09T01:48:42;13.80;99.90
5924;DHT22;2987;50.884;14.818;2023-07-09T01:51:11;13.70;99.90
5924;DHT22;2987;50.884;14.818;2023-07-09T01:53:38;13.70;99.90
5924;DHT22;2987;50.884;14.818;2023-07-09T01:56:07;13.70;99.90
5924;DHT22;2987;50.884;14.818;2023-07-09T01:58:34;13.60;99.90
5924;DHT22;2987;50.884;14.818;2023-07-09T02:01:00;13.50;99.90
5924;DHT22;2987;50.884;14.818;2023-07-09T02:03:26;13.50;99.90
5924;DHT22;2987;50.884;14.818;2023-07-09T02:05:53;13.40;99.90
5924;DHT22;2987;50.884;14.818;2023-07-09T02:08:21;13.40;99.90
5924;DHT22;2987;50.884;14.818;2023-07-09T02:10:49;13.30;99.90
5924;DHT22;2987;50.884;14.818;2023-07-09T02:13:15;13.20;99.90
5924;DHT22;2987;50.884;14.818;2023-07-09T02:15:43;13.20;99.90
5924;DHT22;2987;50.884;14.818;2023-07-09T02:18:11;13.20;99.90
5924;DHT22;2987;50.884;14.818;2023-07-09T02:20:37;13.20;99.90
5924;DHT22;2987;50.884;14.818;2023-07-09T02:23:03;13.10;99.90
5924;DHT22;2987;50.884;14.818;2023-07-09T02:25:30;13.10;99.90
5924;DHT22;2987;50.884;14.818;2023-07-09T02:27:56;13.10;99.90
5924;DHT22;2987;50.884;14.818;2023-07-09T02:30:22;13.00;99.90
5924;DHT22;2987;50.884;14.818;2023-07-09T02:32:49;13.00;99.90
5924;DHT22;2987;50.884;14.818;2023-07-09T02:35:16;12.90;99.90
5924;DHT22;2987;50.884;14.818;2023-07-09T02:37:42;12.90;99.90
5924;DHT22;2987;50.884;14.818;2023-07-09T02:40:13;12.90;99.90
5924;DHT22;2987;50.884;14.818;2023-07-09T02:42:39;12.70;99.90
5924;DHT22;2987;50.884;14.818;2023-07-09T02:45:05;12.80;99.90
5924;DHT22;2987;50.884;14.818;2023-07-09T02:47:33;12.80;99.90
5924;DHT22;2987;50.884;14.818;2023-07-09T02:50:00;12.80;99.90
5924;DHT22;2987;50.884;14.818;2023-07-09T02:52:27;12.80;99.90
5924;DHT22;2987;50.884;14.818;2023-07-09T02:54:53;12.80;99.90
5924;DHT22;2987;50.884;14.818;2023-07-09T02:57:19;12.80;99.90
5924;DHT22;2987;50.884;14.818;2023-07-09T02:59:45;12.80;99.90
5924;DHT22;2987;50.884;14.818;2023-07-09T03:02:11;12.80;99.90
5924;DHT22;2987;50.884;14.818;2023-07-09T03:04:37;12.80;99.90
5924;DHT22;2987;50.884;14.818;2023-07-09T03:07:04;12.80;99.90
5924;DHT22;2987;50.884;14.818;2023-07-09T03:09:30;12.80;99.90
5924;DHT22;2987;50.884;14.818;2023-07-09T03:11:56;12.80;99.90
5924;DHT22;2987;50.884;14.818;2023-07-09T03:14:22;12.80;99.90
5924;DHT22;2987;50.884;14.818;2023-07-09T03:16:49;12.80;99.90
5924;DHT22;2987;50.884;14.818;2023-07-09T03:19:15;12.80;99.90
5924;DHT22;2987;50.884;14.818;2023-07-09T03:21:41;12.70;99.90
5924;DHT22;2987;50.884;14.818;2023-07-09T03:24:07;12.70;99.90
5924;DHT22;2987;50.884;14.818;2023-07-09T03:26:34;12.60;99.90
5924;DHT22;2987;50.884;14.818;2023-07-09T03:29:00;12.60;99.90
5924;DHT22;2987;50.884;14.818;2023-07-09T03:31:27;12.60;99.90
5924;DHT22;2987;50.884;14.818;2023-07-09T03:33:53;12.60;99.90
5924;DHT22;2987;50.884;14.818;2023-07-09T03:36:20;12.60;99.90
5924;DHT22;2987;50.884;14.818;2023-07-09T03:38:47;12.60;99.90
5924;DHT22;2987;50.884;14.818;2023-07-09T03:41:13;12.60;99.90
5924;DHT22;2987;50.884;14.818;2023-07-09T03:43:40;12.70;99.90
5924;DHT22;2987;50.884;14.818;2023-07-09T03:46:06;12.60;99.90
5924;DHT22;2987;50.884;14.818;2023-07-09T03:48:32;12.60;99.90
5924;DHT22;2987;50.884;14.818;2023-07-09T03:50:58;12.60;99.90
5924;DHT22;2987;50.884;14.818;2023-07-09T03:53:24;12.70;99.90
5924;DHT22;2987;50.884;14.818;2023-07-09T03:55:53;12.70;99.90
5924;DHT22;2987;50.884;14.818;2023-07-09T03:58:20;12.70;99.90
5924;DHT22;2987;50.884;14.818;2023-07-09T04:00:46;12.70;99.90
5924;DHT22;2987;50.884;14.818;2023-07-09T04:03:12;12.80;99.90
5924;DHT22;2987;50.884;14.818;2023-07-09T04:05:38;12.80;99.90
5924;DHT22;2987;50.884;14.818;2023-07-09T04:08:05;12.80;99.90
5924;DHT22;2987;50.884;14.818;2023-07-09T04:10:31;12.90;99.90
5924;DHT22;2987;50.884;14.818;2023-07-09T04:12:57;12.90;99.90
5924;DHT22;2987;50.884;14.818;2023-07-09T04:15:24;13.00;99.90
5924;DHT22;2987;50.884;14.818;2023-07-09T04:17:50;13.00;99.90
5924;DHT22;2987;50.884;14.818;2023-07-09T04:20:17;13.10;99.90
5924;DHT22;2987;50.884;14.818;2023-07-09T04:22:44;13.10;99.90
5924;DHT22;2987;50.884;14.818;2023-07-09T04:25:11;13.20;99.90
5924;DHT22;2987;50.884;14.818;2023-07-09T04:27:39;13.30;99.90
5924;DHT22;2987;50.884;14.818;2023-07-09T04:30:10;13.30;99.90
5924;DHT22;2987;50.884;14.818;2023-07-09T04:32:36;13.50;99.90
5924;DHT22;2987;50.884;14.818;2023-07-09T04:35:03;13.60;99.90
5924;DHT22;2987;50.884;14.818;2023-07-09T04:37:32;13.70;99.90
5924;DHT22;2987;50.884;14.818;2023-07-09T04:39:58;13.80;99.90
5924;DHT22;2987;50.884;14.818;2023-07-09T04:42:24;13.90;99.90
5924;DHT22;2987;50.884;14.818;2023-07-09T04:44:51;14.00;99.90
5924;DHT22;2987;50.884;14.818;2023-07-09T04:47:17;14.10;99.90
5924;DHT22;2987;50.884;14.818;2023-07-09T04:49:42;14.20;99.90
5924;DHT22;2987;50.884;14.818;2023-07-09T04:52:09;14.30;99.90
5924;DHT22;2987;50.884;14.818;2023-07-09T04:54:39;14.40;99.90
5924;DHT22;2987;50.884;14.818;2023-07-09T04:57:05;14.50;99.90
5924;DHT22;2987;50.884;14.818;2023-07-09T04:59:32;14.60;99.90
5924;DHT22;2987;50.884;14.818;2023-07-09T05:01:59;14.80;99.90
5924;DHT22;2987;50.884;14.818;2023-07-09T05:04:25;14.90;99.90
5924;DHT22;2987;50.884;14.818;2023-07-09T05:06:51;15.00;99.90
5924;DHT22;2987;50.884;14.818;2023-07-09T05:09:18;15.10;99.90
5924;DHT22;2987;50.884;14.818;2023-07-09T05:11:44;15.30;99.90
5924;DHT22;2987;50.884;14.818;2023-07-09T05:14:10;15.50;99.90
5924;DHT22;2987;50.884;14.818;2023-07-09T05:16:36;15.70;99.90
5924;DHT22;2987;50.884;14.818;2023-07-09T05:19:02;15.80;99.90
5924;DHT22;2987;50.884;14.818;2023-07-09T05:21:28;15.90;99.90
5924;DHT22;2987;50.884;14.818;2023-07-09T05:23:55;16.00;99.90
5924;DHT22;2987;50.884;14.818;2023-07-09T05:26:21;16.10;99.90
5924;DHT22;2987;50.884;14.818;2023-07-09T05:28:47;16.20;99.90
5924;DHT22;2987;50.884;14.818;2023-07-09T05:31:13;16.40;99.90
5924;DHT22;2987;50.884;14.818;2023-07-09T05:33:39;16.50;99.90
5924;DHT22;2987;50.884;14.818;2023-07-09T05:36:05;16.60;99.90
5924;DHT22;2987;50.884;14.818;2023-07-09T05:38:33;16.60;99.90
5924;DHT22;2987;50.884;14.818;2023-07-09T05:41:01;16.70;99.90
5924;DHT22;2987;50.884;14.818;2023-07-09T05:43:29;16.80;99.90
5924;DHT22;2987;50.884;14.818;2023-07-09T05:45:56;17.00;99.90
5924;DHT22;2987;50.884;14.818;2023-07-09T05:48:23;17.20;99.90
5924;DHT22;2987;50.884;14.818;2023-07-09T05:50:53;17.40;99.90
5924;DHT22;2987;50.884;14.818;2023-07-09T05:53:20;17.50;99.90
5924;DHT22;2987;50.884;14.818;2023-07-09T05:55:46;17.50;99.90
5924;DHT22;2987;50.884;14.818;2023-07-09T05:58:12;17.60;99.90
5924;DHT22;2987;50.884;14.818;2023-07-09T06:00:38;17.70;99.90
5924;DHT22;2987;50.884;14.818;2023-07-09T06:03:07;17.80;99.90
5924;DHT22;2987;50.884;14.818;2023-07-09T06:05:34;17.90;99.90
5924;DHT22;2987;50.884;14.818;2023-07-09T06:08:00;18.00;99.90
5924;DHT22;2987;50.884;14.818;2023-07-09T06:10:26;18.20;99.90
5924;DHT22;2987;50.884;14.818;2023-07-09T06:12:52;18.40;99.90
5924;DHT22;2987;50.884;14.818;2023-07-09T06:15:18;18.50;99.90
5924;DHT22;2987;50.884;14.818;2023-07-09T06:17:44;18.70;99.90
5924;DHT22;2987;50.884;14.818;2023-07-09T06:20:10;19.10;99.90
5924;DHT22;2987;50.884;14.818;2023-07-09T06:22:38;19.50;99.90
5924;DHT22;2987;50.884;14.818;2023-07-09T06:25:04;20.00;99.90
5924;DHT22;2987;50.884;14.818;2023-07-09T06:27:30;20.40;99.90
5924;DHT22;2987;50.884;14.818;2023-07-09T06:29:56;20.90;99.90
5924;DHT22;2987;50.884;14.818;2023-07-09T06:32:22;21.30;99.90
5924;DHT22;2987;50.884;14.818;2023-07-09T06:34:49;21.60;99.90
5924;DHT22;2987;50.884;14.818;2023-07-09T06:37:15;22.20;99.90
5924;DHT22;2987;50.884;14.818;2023-07-09T06:39:40;22.70;99.90
5924;DHT22;2987;50.884;14.818;2023-07-09T06:42:06;23.10;99.90
5924;DHT22;2987;50.884;14.818;2023-07-09T06:44:50;23.40;99.90
5924;DHT22;2987;50.884;14.818;2023-07-09T06:47:16;23.80;99.90
5924;DHT22;2987;50.884;14.818;2023-07-09T06:49:42;24.20;99.90
5924;DHT22;2987;50.884;14.818;2023-07-09T06:52:08;24.50;99.90
5924;DHT22;2987;50.884;14.818;2023-07-09T06:54:34;24.90;99.90
5924;DHT22;2987;50.884;14.818;2023-07-09T06:59:26;25.50;99.90
5924;DHT22;2987;50.884;14.818;2023-07-09T07:01:52;25.60;99.90
5924;DHT22;2987;50.884;14.818;2023-07-09T07:04:18;25.90;99.90
5924;DHT22;2987;50.884;14.818;2023-07-09T07:09:10;26.40;99.90
5924;DHT22;2987;50.884;14.818;2023-07-09T07:11:36;26.30;99.90
5924;DHT22;2987;50.884;14.818;2023-07-09T07:14:03;26.60;99.90
5924;DHT22;2987;50.884;14.818;2023-07-09T07:16:29;27.10;99.90
5924;DHT22;2987;50.884;14.818;2023-07-09T07:18:55;27.40;99.90
5924;DHT22;2987;50.884;14.818;2023-07-09T07:21:21;27.60;99.90
5924;DHT22;2987;50.884;14.818;2023-07-09T07:23:47;27.80;99.90
5924;DHT22;2987;50.884;14.818;2023-07-09T07:26:13;28.10;99.90
5924;DHT22;2987;50.884;14.818;2023-07-09T07:28:39;28.30;99.90
5924;DHT22;2987;50.884;14.818;2023-07-09T07:31:07;28.50;99.90
5924;DHT22;2987;50.884;14.818;2023-07-09T07:33:35;28.70;99.90
5924;DHT22;2987;50.884;14.818;2023-07-09T07:36:04;28.70;99.90
5924;DHT22;2987;50.884;14.818;2023-07-09T07:38:31;29.10;99.90
5924;DHT22;2987;50.884;14.818;2023-07-09T07:40:57;29.50;99.90
5924;DHT22;2987;50.884;14.818;2023-07-09T07:43:23;29.80;99.90
5924;DHT22;2987;50.884;14.818;2023-07-09T07:45:49;30.00;99.90
5924;DHT22;2987;50.884;14.818;2023-07-09T07:48:15;30.30;99.90
5924;DHT22;2987;50.884;14.818;2023-07-09T07:50:41;30.50;99.90
5924;DHT22;2987;50.884;14.818;2023-07-09T07:53:07;30.60;99.90
5924;DHT22;2987;50.884;14.818;2023-07-09T07:55:34;30.70;99.90
5924;DHT22;2987;50.884;14.818;2023-07-09T07:58:02;30.90;99.40
5924;DHT22;2987;50.884;14.818;2023-07-09T08:00:30;31.30;97.80
5924;DHT22;2987;50.884;14.818;2023-07-09T08:02:56;31.10;97.60
5924;DHT22;2987;50.884;14.818;2023-07-09T08:05:23;31.00;95.50
5924;DHT22;2987;50.884;14.818;2023-07-09T08:07:49;31.20;94.60
5924;DHT22;2987;50.884;14.818;2023-07-09T08:10:15;31.40;95.70
5924;DHT22;2987;50.884;14.818;2023-07-09T08:12:41;31.50;93.40
5924;DHT22;2987;50.884;14.818;2023-07-09T08:15:08;31.80;93.40
5924;DHT22;2987;50.884;14.818;2023-07-09T08:17:34;31.90;88.00
5924;DHT22;2987;50.884;14.818;2023-07-09T08:20:00;32.20;87.10
5924;DHT22;2987;50.884;14.818;2023-07-09T08:22:26;32.50;86.10
5924;DHT22;2987;50.884;14.818;2023-07-09T08:24:52;32.40;79.10
5924;DHT22;2987;50.884;14.818;2023-07-09T08:27:18;32.30;77.50
5924;DHT22;2987;50.884;14.818;2023-07-09T08:29:45;32.40;77.00
5924;DHT22;2987;50.884;14.818;2023-07-09T08:32:12;32.40;72.60
5924;DHT22;2987;50.884;14.818;2023-07-09T08:34:40;32.30;74.00
5924;DHT22;2987;50.884;14.818;2023-07-09T08:37:08;32.40;76.60
5924;DHT22;2987;50.884;14.818;2023-07-09T08:39:35;32.60;75.40
5924;DHT22;2987;50.884;14.818;2023-07-09T08:42:07;32.90;71.50
5924;DHT22;2987;50.884;14.818;2023-07-09T08:45:00;33.00;71.70
5924;DHT22;2987;50.884;14.818;2023-07-09T08:50:31;33.00;67.90
5924;DHT22;2987;50.884;14.818;2023-07-09T08:52:58;33.20;71.60
5924;DHT22;2987;50.884;14.818;2023-07-09T08:57:52;33.50;63.50
5924;DHT22;2987;50.884;14.818;2023-07-09T09:00:31;33.60;64.80
5924;DHT22;2987;50.884;14.818;2023-07-09T09:03:03;33.70;57.80
5924;DHT22;2987;50.884;14.818;2023-07-09T09:05:33;33.60;59.60
5924;DHT22;2987;50.884;14.818;2023-07-09T09:08:10;33.30;56.10
5924;DHT22;2987;50.884;14.818;2023-07-09T09:10:41;33.10;57.10
5924;DHT22;2987;50.884;14.818;2023-07-09T09:13:11;32.90;60.60
5924;DHT22;2987;50.884;14.818;2023-07-09T09:15:41;33.10;59.70
5924;DHT22;2987;50.884;14.818;2023-07-09T09:18:22;33.40;57.90
5924;DHT22;2987;50.884;14.818;2023-07-09T09:20:57;33.70;58.90
5924;DHT22;2987;50.884;14.818;2023-07-09T09:23:40;33.90;59.00
5924;DHT22;2987;50.884;14.818;2023-07-09T09:26:17;34.00;58.30
5924;DHT22;2987;50.884;14.818;2023-07-09T09:28:44;34.20;56.50
5924;DHT22;2987;50.884;14.818;2023-07-09T09:31:11;34.30;57.20
5924;DHT22;2987;50.884;14.818;2023-07-09T09:33:44;34.40;56.70
5924;DHT22;2987;50.884;14.818;2023-07-09T09:36:26;34.40;57.40
5924;DHT22;2987;50.884;14.818;2023-07-09T09:38:53;34.50;59.70
5924;DHT22;2987;50.884;14.818;2023-07-09T09:41:23;34.30;58.40
5924;DHT22;2987;50.884;14.818;2023-07-09T09:43:51;34.00;57.90
5924;DHT22;2987;50.884;14.818;2023-07-09T09:46:21;34.20;57.70
5924;DHT22;2987;50.884;14.818;2023-07-09T09:48:50;34.30;59.20
5924;DHT22;2987;50.884;14.818;2023-07-09T09:51:18;34.50;58.60
5924;DHT22;2987;50.884;14.818;2023-07-09T09:53:49;34.30;58.20
5924;DHT22;2987;50.884;14.818;2023-07-09T09:56:34;34.10;59.30
5924;DHT22;2987;50.884;14.818;2023-07-09T09:59:03;34.30;59.70
5924;DHT22;2987;50.884;14.818;2023-07-09T10:01:33;34.10;58.40
5924;DHT22;2987;50.884;14.818;2023-07-09T10:04:03;34.40;59.50
5924;DHT22;2987;50.884;14.818;2023-07-09T10:06:36;34.60;58.30
5924;DHT22;2987;50.884;14.818;2023-07-09T10:12:18;34.60;55.20
5924;DHT22;2987;50.884;14.818;2023-07-09T10:15:28;34.40;54.00
5924;DHT22;2987;50.884;14.818;2023-07-09T10:28:59;34.30;54.60
5924;DHT22;2987;50.884;14.818;2023-07-09T10:31:50;34.40;56.00
5924;DHT22;2987;50.884;14.818;2023-07-09T10:34:32;34.30;54.60
5924;DHT22;2987;50.884;14.818;2023-07-09T10:37:21;34.30;56.30
5924;DHT22;2987;50.884;14.818;2023-07-09T10:39:55;33.90;54.90
5924;DHT22;2987;50.884;14.818;2023-07-09T10:42:28;33.40;57.00
5924;DHT22;2987;50.884;14.818;2023-07-09T10:44:59;33.80;56.90
5924;DHT22;2987;50.884;14.818;2023-07-09T10:47:32;34.00;53.10
5924;DHT22;2987;50.884;14.818;2023-07-09T10:50:03;34.10;55.70
5924;DHT22;2987;50.884;14.818;2023-07-09T10:52:34;34.30;54.00
5924;DHT22;2987;50.884;14.818;2023-07-09T10:55:22;34.00;56.00
5924;DHT22;2987;50.884;14.818;2023-07-09T11:00:34;34.00;55.50
5924;DHT22;2987;50.884;14.818;2023-07-09T11:03:08;34.10;55.40
5924;DHT22;2987;50.884;14.818;2023-07-09T11:05:35;34.30;58.00
5924;DHT22;2987;50.884;14.818;2023-07-09T11:08:11;34.30;57.60
5924;DHT22;2987;50.884;14.818;2023-07-09T11:10:41;34.40;57.50
5924;DHT22;2987;50.884;14.818;2023-07-09T11:13:16;34.70;57.00
5924;DHT22;2987;50.884;14.818;2023-07-09T11:15:47;35.10;56.70
5924;DHT22;2987;50.884;14.818;2023-07-09T11:18:20;35.40;54.50
5924;DHT22;2987;50.884;14.818;2023-07-09T11:20:59;35.00;54.10
5924;DHT22;2987;50.884;14.818;2023-07-09T11:23:26;34.90;54.80
5924;DHT22;2987;50.884;14.818;2023-07-09T11:28:50;34.50;54.90
5924;DHT22;2987;50.884;14.818;2023-07-09T11:31:25;34.70;56.20
5924;DHT22;2987;50.884;14.818;2023-07-09T11:34:18;34.80;55.70
5924;DHT22;2987;50.884;14.818;2023-07-09T11:36:56;34.80;55.40
5924;DHT22;2987;50.884;14.818;2023-07-09T11:39:43;35.00;55.80
5924;DHT22;2987;50.884;14.818;2023-07-09T11:42:31;34.90;55.10
5924;DHT22;2987;50.884;14.818;2023-07-09T11:45:05;34.90;55.70
5924;DHT22;2987;50.884;14.818;2023-07-09T11:47:42;35.20;55.70
5924;DHT22;2987;50.884;14.818;2023-07-09T11:50:24;35.10;54.40
5924;DHT22;2987;50.884;14.818;2023-07-09T11:52:58;35.10;53.00
5924;DHT22;2987;50.884;14.818;2023-07-09T11:55:28;35.20;54.30
5924;DHT22;2987;50.884;14.818;2023-07-09T11:58:00;35.20;53.10
5924;DHT22;2987;50.884;14.818;2023-07-09T12:00:29;35.10;54.20
5924;DHT22;2987;50.884;14.818;2023-07-09T12:02:57;35.10;54.10
5924;DHT22;2987;50.884;14.818;2023-07-09T12:05:27;35.10;53.40
5924;DHT22;2987;50.884;14.818;2023-07-09T12:07:55;35.10;54.80
5924;DHT22;2987;50.884;14.818;2023-07-09T12:10:26;34.70;54.60
5924;DHT22;2987;50.884;14.818;2023-07-09T12:12:58;34.70;53.90
5924;DHT22;2987;50.884;14.818;2023-07-09T12:15:27;34.80;53.80
5924;DHT22;2987;50.884;14.818;2023-07-09T12:18:02;34.50;53.10
5924;DHT22;2987;50.884;14.818;2023-07-09T12:20:33;34.70;54.40
5924;DHT22;2987;50.884;14.818;2023-07-09T12:23:00;34.90;53.80
5924;DHT22;2987;50.884;14.818;2023-07-09T12:25:35;34.70;55.00
5924;DHT22;2987;50.884;14.818;2023-07-09T12:28:01;35.00;56.70
5924;DHT22;2987;50.884;14.818;2023-07-09T12:30:32;34.80;54.10
5924;DHT22;2987;50.884;14.818;2023-07-09T12:32:59;34.50;54.90
5924;DHT22;2987;50.884;14.818;2023-07-09T12:35:28;34.50;57.40
5924;DHT22;2987;50.884;14.818;2023-07-09T12:37:54;34.10;54.60
5924;DHT22;2987;50.884;14.818;2023-07-09T12:40:28;34.10;55.70
5924;DHT22;2987;50.884;14.818;2023-07-09T12:42:56;34.00;56.50
5924;DHT22;2987;50.884;14.818;2023-07-09T12:45:23;34.00;54.80
5924;DHT22;2987;50.884;14.818;2023-07-09T12:47:50;34.30;55.60
5924;DHT22;2987;50.884;14.818;2023-07-09T12:50:32;34.40;54.60
5924;DHT22;2987;50.884;14.818;2023-07-09T12:53:14;34.30;56.50
5924;DHT22;2987;50.884;14.818;2023-07-09T12:55:42;34.40;56.40
5924;DHT22;2987;50.884;14.818;2023-07-09T12:58:13;34.60;59.00
5924;DHT22;2987;50.884;14.818;2023-07-09T13:00:40;34.50;55.40
5924;DHT22;2987;50.884;14.818;2023-07-09T13:03:13;34.70;56.50
5924;DHT22;2987;50.884;14.818;2023-07-09T13:05:52;34.90;56.20
5924;DHT22;2987;50.884;14.818;2023-07-09T13:08:19;35.10;55.00
5924;DHT22;2987;50.884;14.818;2023-07-09T13:10:45;34.90;54.60
5924;DHT22;2987;50.884;14.818;2023-07-09T13:13:13;34.40;55.00
5924;DHT22;2987;50.884;14.818;2023-07-09T13:15:42;34.10;54.60
5924;DHT22;2987;50.884;14.818;2023-07-09T13:18:11;34.20;57.60
5924;DHT22;2987;50.884;14.818;2023-07-09T13:20:40;34.50;55.30
5924;DHT22;2987;50.884;14.818;2023-07-09T13:23:18;34.40;55.00
5924;DHT22;2987;50.884;14.818;2023-07-09T13:25:45;34.30;54.20
5924;DHT22;2987;50.884;14.818;2023-07-09T13:30:41;34.90;54.40
5924;DHT22;2987;50.884;14.818;2023-07-09T13:33:09;35.10;53.30
5924;DHT22;2987;50.884;14.818;2023-07-09T13:35:36;35.00;53.30
5924;DHT22;2987;50.884;14.818;2023-07-09T13:38:02;35.10;53.60
5924;DHT22;2987;50.884;14.818;2023-07-09T13:40:28;35.10;55.20
5924;DHT22;2987;50.884;14.818;2023-07-09T13:42:54;35.10;53.10
5924;DHT22;2987;50.884;14.818;2023-07-09T13:45:24;35.20;52.90
5924;DHT22;2987;50.884;14.818;2023-07-09T13:47:52;35.30;54.30
5924;DHT22;2987;50.884;14.818;2023-07-09T13:50:19;35.10;53.20
5924;DHT22;2987;50.884;14.818;2023-07-09T13:52:46;35.00;56.20
5924;DHT22;2987;50.884;14.818;2023-07-09T13:55:19;35.00;55.20
5924;DHT22;2987;50.884;14.818;2023-07-09T13:57:48;35.20;54.50
5924;DHT22;2987;50.884;14.818;2023-07-09T14:00:14;35.00;56.80
5924;DHT22;2987;50.884;14.818;2023-07-09T14:02:40;35.10;56.30
5924;DHT22;2987;50.884;14.818;2023-07-09T14:05:10;35.20;54.50
5924;DHT22;2987;50.884;14.818;2023-07-09T14:07:39;35.10;53.40
5924;DHT22;2987;50.884;14.818;2023-07-09T14:10:10;35.10;54.60
5924;DHT22;2987;50.884;14.818;2023-07-09T14:12:40;34.80;56.30
5924;DHT22;2987;50.884;14.818;2023-07-09T14:15:17;34.80;56.40
5924;DHT22;2987;50.884;14.818;2023-07-09T14:17:44;34.90;54.50
5924;DHT22;2987;50.884;14.818;2023-07-09T14:20:13;34.80;53.90
5924;DHT22;2987;50.884;14.818;2023-07-09T14:22:41;34.70;53.60
5924;DHT22;2987;50.884;14.818;2023-07-09T14:25:29;34.50;57.20
5924;DHT22;2987;50.884;14.818;2023-07-09T14:27:56;34.50;56.20
5924;DHT22;2987;50.884;14.818;2023-07-09T14:30:24;34.70;54.80
5924;DHT22;2987;50.884;14.818;2023-07-09T14:32:51;34.90;53.50
5924;DHT22;2987;50.884;14.818;2023-07-09T14:35:20;34.80;52.80
5924;DHT22;2987;50.884;14.818;2023-07-09T14:37:49;35.00;52.40
5924;DHT22;2987;50.884;14.818;2023-07-09T14:40:17;34.70;52.90
5924;DHT22;2987;50.884;14.818;2023-07-09T14:42:44;34.70;52.70
5924;DHT22;2987;50.884;14.818;2023-07-09T14:45:18;34.40;53.80
5924;DHT22;2987;50.884;14.818;2023-07-09T14:47:45;34.00;53.70
5924;DHT22;2987;50.884;14.818;2023-07-09T14:50:11;34.00;52.90
5924;DHT22;2987;50.884;14.818;2023-07-09T14:52:37;34.00;55.50
5924;DHT22;2987;50.884;14.818;2023-07-09T14:55:04;33.90;52.50
5924;DHT22;2987;50.884;14.818;2023-07-09T14:57:31;34.00;52.50
5924;DHT22;2987;50.884;14.818;2023-07-09T14:59:59;33.90;52.80
5924;DHT22;2987;50.884;14.818;2023-07-09T15:02:36;33.70;53.30
5924;DHT22;2987;50.884;14.818;2023-07-09T15:05:04;33.40;53.00
5924;DHT22;2987;50.884;14.818;2023-07-09T15:07:31;33.40;54.70
5924;DHT22;2987;50.884;14.818;2023-07-09T15:10:00;33.40;53.80
5924;DHT22;2987;50.884;14.818;2023-07-09T15:12:29;33.50;54.90
5924;DHT22;2987;50.884;14.818;2023-07-09T15:15:01;33.50;55.10
5924;DHT22;2987;50.884;14.818;2023-07-09T15:17:32;33.40;54.40
5924;DHT22;2987;50.884;14.818;2023-07-09T15:19:58;33.50;54.00
5924;DHT22;2987;50.884;14.818;2023-07-09T15:22:30;33.40;53.80
5924;DHT22;2987;50.884;14.818;2023-07-09T15:24:58;33.20;55.90
5924;DHT22;2987;50.884;14.818;2023-07-09T15:27:24;33.20;56.70
5924;DHT22;2987;50.884;14.818;2023-07-09T15:29:51;33.40;54.80
5924;DHT22;2987;50.884;14.818;2023-07-09T15:32:17;33.40;52.70
5924;DHT22;2987;50.884;14.818;2023-07-09T15:34:43;33.40;54.50
5924;DHT22;2987;50.884;14.818;2023-07-09T15:37:12;33.30;55.20
5924;DHT22;2987;50.884;14.818;2023-07-09T15:39:39;33.10;55.90
5924;DHT22;2987;50.884;14.818;2023-07-09T15:42:13;33.10;55.30
5924;DHT22;2987;50.884;14.818;2023-07-09T15:44:40;33.10;55.50
5924;DHT22;2987;50.884;14.818;2023-07-09T15:47:16;33.20;55.30
5924;DHT22;2987;50.884;14.818;2023-07-09T15:49:43;33.20;53.00
5924;DHT22;2987;50.884;14.818;2023-07-09T15:52:10;33.20;53.70
5924;DHT22;2987;50.884;14.818;2023-07-09T15:54:36;33.20;54.40
5924;DHT22;2987;50.884;14.818;2023-07-09T15:57:04;33.20;57.30
5924;DHT22;2987;50.884;14.818;2023-07-09T15:59:34;33.10;55.20
5924;DHT22;2987;50.884;14.818;2023-07-09T16:02:02;32.90;54.80
5924;DHT22;2987;50.884;14.818;2023-07-09T16:04:29;32.60;55.70
5924;DHT22;2987;50.884;14.818;2023-07-09T16:06:55;32.50;54.30
5924;DHT22;2987;50.884;14.818;2023-07-09T16:09:22;32.50;55.60
5924;DHT22;2987;50.884;14.818;2023-07-09T16:11:50;32.50;55.40
5924;DHT22;2987;50.884;14.818;2023-07-09T16:14:24;32.50;57.70
5924;DHT22;2987;50.884;14.818;2023-07-09T16:16:51;32.50;55.10
5924;DHT22;2987;50.884;14.818;2023-07-09T16:19:20;32.20;54.60
5924;DHT22;2987;50.884;14.818;2023-07-09T16:21:49;32.10;56.20
5924;DHT22;2987;50.884;14.818;2023-07-09T16:24:25;32.20;55.40
5924;DHT22;2987;50.884;14.818;2023-07-09T16:26:53;32.30;56.70
5924;DHT22;2987;50.884;14.818;2023-07-09T16:29:24;32.20;55.50
5924;DHT22;2987;50.884;14.818;2023-07-09T16:31:53;32.10;56.90
5924;DHT22;2987;50.884;14.818;2023-07-09T16:34:21;31.80;58.50